Welcome to Northern Hawkes Bay. New Zealand.
PWS Header
      nz Flag



Hit Counter


W3C Valid W3C Valid logo


    Wairoa

Select any of the Stations below to visit their websites.










Historic Data from Weather Underground
Select the location of interest below. Wairoa is the default. Please have patience, this Data is slow to load in.
Northern Hawkes Bay Historical Data
Daily Summary for August 12, 2017 Units:  Metric    English   Both
« Previous Day
Next Day »
Daily Weekly Monthly Yearly Custom
  High: Low: Average:
Temperature: 20.6 °C 6.6 °C 12.8 °C
Dew Point: 10.9 °C 4.2 °C 7.7 °C
Humidity: 92% 48% 73%
Wind Speed: 27.0km/h 0.0km/h 5.8km/h
Wind Gust: 39.3km/h - -
Wind- - West
Pressure: 1008.0 hPa 1003.9 hPa -
Precipitation: 0.0 mm    
Historical Graphs
 
 
Tabular Data for August 12, 2017
Time Temperature Dew Point Pressure Wind Wind Speed Wind Gust Humidity Rainfall Rate (Hourly) solar
00:01 10.3 °C 5.9 °C 1005.0 hPa NNW 5.0 km/h 8.7 km/h 74% 0.0 mm 0 W/m2
00:06 10.2 °C 5.8 °C 1005.0 hPa NNW 3.5 km/h 7.2 km/h 74% 0.0 mm 0 W/m2
00:11 10.1 °C 5.7 °C 1005.0 hPa NNW 3.5 km/h 7.2 km/h 74% 0.0 mm 0 W/m2
00:16 10.0 °C 5.6 °C 1004.6 hPa North 5.0 km/h 6.1 km/h 74% 0.0 mm 0 W/m2
00:21 10.0 °C 5.6 °C 1005.0 hPa North 3.5 km/h 8.7 km/h 74% 0.0 mm 0 W/m2
00:26 9.8 °C 5.6 °C 1005.0 hPa North 2.6 km/h 8.7 km/h 75% 0.0 mm 0 W/m2
00:31 9.7 °C 5.7 °C 1004.6 hPa North 5.0 km/h 7.2 km/h 76% 0.0 mm 0 W/m2
00:36 9.9 °C 5.9 °C 1005.0 hPa North 5.0 km/h 7.2 km/h 76% 0.0 mm 0 W/m2
00:41 9.8 °C 5.8 °C 1005.0 hPa North 5.0 km/h 7.2 km/h 76% 0.0 mm 0 W/m2
00:47 9.7 °C 5.7 °C 1005.0 hPa NNW 5.0 km/h 7.2 km/h 76% 0.0 mm 0 W/m2
00:52 9.7 °C 5.7 °C 1004.6 hPa NNW 5.0 km/h 7.2 km/h 76% 0.0 mm 0 W/m2
00:57 9.8 °C 5.8 °C 1004.6 hPa NNW 5.0 km/h 8.7 km/h 76% 0.0 mm 0 W/m2
01:02 9.8 °C 5.8 °C 1005.0 hPa NNW 5.0 km/h 8.7 km/h 76% 0.0 mm 0 W/m2
01:07 9.9 °C 5.9 °C 1005.0 hPa NNW 5.0 km/h 8.7 km/h 76% 0.0 mm 0 W/m2
01:12 9.8 °C 5.8 °C 1004.6 hPa NNW 3.5 km/h 8.7 km/h 76% 0.0 mm 0 W/m2
01:17 9.8 °C 5.8 °C 1004.6 hPa NNW 3.5 km/h 7.2 km/h 76% 0.0 mm 0 W/m2
01:22 9.6 °C 5.6 °C 1005.0 hPa NNW 3.5 km/h 6.1 km/h 76% 0.0 mm 0 W/m2
01:27 9.6 °C 5.6 °C 1004.6 hPa North 6.1 km/h 8.7 km/h 76% 0.0 mm 0 W/m2
01:32 9.6 °C 5.6 °C 1004.6 hPa North 6.1 km/h 8.7 km/h 76% 0.0 mm 0 W/m2
01:37 9.7 °C 5.7 °C 1005.0 hPa NNW 6.1 km/h 8.7 km/h 76% 0.0 mm 0 W/m2
01:42 9.8 °C 5.8 °C 1005.0 hPa North 7.2 km/h 9.7 km/h 76% 0.0 mm 0 W/m2
01:47 9.9 °C 5.9 °C 1005.0 hPa North 3.5 km/h 9.7 km/h 76% 0.0 mm 0 W/m2
01:52 9.5 °C 5.3 °C 1005.0 hPa NNW 5.0 km/h 9.7 km/h 75% 0.0 mm 0 W/m2
01:57 8.9 °C 5.1 °C 1005.3 hPa NW 6.1 km/h 9.7 km/h 77% 0.0 mm 0 W/m2
02:02 8.7 °C 5.3 °C 1005.0 hPa NNW 3.5 km/h 9.7 km/h 79% 0.0 mm 0 W/m2
02:07 8.7 °C 5.4 °C 1005.0 hPa NNW 5.0 km/h 8.7 km/h 80% 0.0 mm 0 W/m2
02:12 9.0 °C 5.6 °C 1005.0 hPa NNW 3.5 km/h 7.2 km/h 79% 0.0 mm 0 W/m2
02:17 9.1 °C 5.7 °C 1004.6 hPa NNW 5.0 km/h 8.7 km/h 79% 0.0 mm 0 W/m2
02:22 9.4 °C 5.8 °C 1005.0 hPa North 5.0 km/h 8.7 km/h 78% 0.0 mm 0 W/m2
02:27 9.5 °C 5.7 °C 1005.0 hPa North 3.5 km/h 9.7 km/h 77% 0.0 mm 0 W/m2
02:32 9.5 °C 5.7 °C 1004.6 hPa North 6.1 km/h 9.7 km/h 77% 0.0 mm 0 W/m2
02:49 9.6 °C 5.6 °C 1004.6 hPa NNW 3.5 km/h 8.7 km/h 76% 0.0 mm 0 W/m2
02:54 9.5 °C 5.5 °C 1004.3 hPa NW 5.0 km/h 8.7 km/h 76% 0.0 mm 0 W/m2
02:59 9.9 °C 5.7 °C 1004.6 hPa NNW 8.7 km/h 13.4 km/h 75% 0.0 mm 0 W/m2
03:04 9.8 °C 5.4 °C 1004.6 hPa NNW 6.1 km/h 13.4 km/h 74% 0.0 mm 0 W/m2
03:09 9.4 °C 5.2 °C 1004.6 hPa NNW 6.1 km/h 11.1 km/h 75% 0.0 mm 0 W/m2
03:14 9.2 °C 5.0 °C 1004.6 hPa NNW 5.0 km/h 9.7 km/h 75% 0.0 mm 0 W/m2
03:19 9.3 °C 5.3 °C 1004.6 hPa NNW 6.1 km/h 9.7 km/h 76% 0.0 mm 0 W/m2
03:24 9.3 °C 5.1 °C 1004.6 hPa NNW 5.0 km/h 8.7 km/h 75% 0.0 mm 0 W/m2
03:29 9.2 °C 5.0 °C 1004.6 hPa NNW 3.5 km/h 8.7 km/h 75% 0.0 mm 0 W/m2
03:34 8.9 °C 4.9 °C 1004.3 hPa NNW 5.0 km/h 6.1 km/h 76% 0.0 mm 0 W/m2
03:39 8.4 °C 4.6 °C 1004.3 hPa NW 5.0 km/h 7.2 km/h 77% 0.0 mm 0 W/m2
03:44 8.2 °C 4.6 °C 1004.6 hPa Calm   7.2 km/h 78% 0.0 mm 0 W/m2
03:49 8.1 °C 4.7 °C 1004.3 hPa NNW 2.6 km/h 7.2 km/h 79% 0.0 mm 0 W/m2
03:54 8.0 °C 4.6 °C 1004.6 hPa Calm   3.5 km/h 79% 0.0 mm 0 W/m2
03:59 7.7 °C 4.4 °C 1004.6 hPa NNW 2.6 km/h 3.5 km/h 80% 0.0 mm 0 W/m2
04:04 7.9 °C 4.8 °C 1004.6 hPa NNW 2.6 km/h 6.1 km/h 81% 0.0 mm 0 W/m2
04:09 8.1 °C 5.1 °C 1004.6 hPa NW 5.0 km/h 7.2 km/h 81% 0.0 mm 0 W/m2
04:14 8.2 °C 4.9 °C 1004.6 hPa NW 3.5 km/h 7.2 km/h 80% 0.0 mm 0 W/m2
04:19 8.1 °C 4.8 °C 1005.0 hPa NW 3.5 km/h 7.2 km/h 80% 0.0 mm 0 W/m2
04:21 8.1 °C 4.8 °C 1004.6 hPa NW 3.5 km/h 6.1 km/h 80% 0.0 mm 0 W/m2
04:26 7.9 °C 4.8 °C 1004.6 hPa NNW 3.5 km/h 7.2 km/h 81% 0.0 mm 0 W/m2
04:31 7.6 °C 4.6 °C 1004.6 hPa NNW 2.6 km/h 7.2 km/h 81% 0.0 mm 0 W/m2
04:36 7.4 °C 4.3 °C 1004.6 hPa NNW 2.6 km/h 5.0 km/h 81% 0.0 mm 0 W/m2
04:41 7.3 °C 4.4 °C 1004.6 hPa Calm   3.5 km/h 82% 0.0 mm 0 W/m2
04:46 7.1 °C 4.2 °C 1004.6 hPa Calm   3.5 km/h 82% 0.0 mm 0 W/m2
04:51 7.0 °C 4.3 °C 1004.3 hPa Calm   3.5 km/h 83% 0.0 mm 0 W/m2
04:56 6.9 °C 4.4 °C 1004.3 hPa North 6.1 km/h 7.2 km/h 84% 0.0 mm 0 W/m2
05:01 6.9 °C 4.4 °C 1004.3 hPa NNW 3.5 km/h 7.2 km/h 84% 0.0 mm 0 W/m2
05:06 6.8 °C 4.4 °C 1004.3 hPa NNW 2.6 km/h 7.2 km/h 85% 0.0 mm 0 W/m2
05:11 6.7 °C 4.3 °C 1004.3 hPa NNW 2.6 km/h 7.2 km/h 85% 0.0 mm 0 W/m2
05:16 6.6 °C 4.3 °C 1004.3 hPa NW 5.0 km/h 6.1 km/h 85% 0.0 mm 0 W/m2
05:21 6.7 °C 4.3 °C 1004.3 hPa NW 2.6 km/h 7.2 km/h 85% 0.0 mm 0 W/m2
05:26 6.7 °C 4.5 °C 1004.3 hPa Calm   7.2 km/h 86% 0.0 mm 0 W/m2
05:31 6.8 °C 4.6 °C 1003.9 hPa NNW 2.6 km/h 5.0 km/h 86% 0.0 mm 0 W/m2
05:36 7.0 °C 4.7 °C 1003.9 hPa NNW 5.0 km/h 6.1 km/h 85% 0.0 mm 0 W/m2
05:41 7.2 °C 4.8 °C 1003.9 hPa NNW 5.0 km/h 7.2 km/h 85% 0.0 mm 0 W/m2
05:46 7.2 °C 4.7 °C 1003.9 hPa NW 5.0 km/h 8.7 km/h 84% 0.0 mm 0 W/m2
05:51 7.3 °C 4.8 °C 1003.9 hPa NW 6.1 km/h 9.7 km/h 84% 0.0 mm 0 W/m2
05:56 7.3 °C 4.9 °C 1003.9 hPa NNW 8.7 km/h 11.1 km/h 85% 0.0 mm 0 W/m2
06:01 7.5 °C 5.2 °C 1003.9 hPa NW 6.1 km/h 12.2 km/h 85% 0.0 mm 0 W/m2
06:06 7.7 °C 5.3 °C 1003.9 hPa NW 6.1 km/h 12.2 km/h 85% 0.0 mm 0 W/m2
06:11 7.8 °C 5.4 °C 1004.3 hPa NW 6.1 km/h 11.1 km/h 85% 0.0 mm 0 W/m2
06:16 7.9 °C 5.4 °C 1004.3 hPa NW 6.1 km/h 9.7 km/h 84% 0.0 mm 0 W/m2
06:21 8.0 °C 5.6 °C 1004.3 hPa NW 1.1 km/h 9.7 km/h 85% 0.0 mm 0 W/m2
06:26 7.9 °C 5.4 °C 1004.6 hPa NW 2.6 km/h 8.7 km/h 84% 0.0 mm 0 W/m2
06:31 7.9 °C 5.4 °C 1003.9 hPa North 1.1 km/h 3.5 km/h 84% 0.0 mm 0 W/m2
06:36 7.7 °C 5.2 °C 1004.3 hPa North 1.1 km/h 3.5 km/h 84% 0.0 mm 0 W/m2
06:41 7.7 °C 5.2 °C 1004.3 hPa Calm   3.5 km/h 84% 0.0 mm 0 W/m2
06:46 7.5 °C 5.0 °C 1004.6 hPa WSW 1.1 km/h 3.5 km/h 84% 0.0 mm 0 W/m2
06:51 7.5 °C 5.0 °C 1005.0 hPa WNW 1.1 km/h 3.5 km/h 84% 0.0 mm 0 W/m2
06:56 7.9 °C 5.4 °C 1005.0 hPa NW 5.0 km/h 7.2 km/h 84% 0.0 mm 0 W/m2
07:01 8.6 °C 6.2 °C 1005.0 hPa NNW 3.5 km/h 8.7 km/h 85% 0.0 mm 0 W/m2
07:06 9.2 °C 6.3 °C 1005.3 hPa NNW 3.5 km/h 8.7 km/h 82% 0.0 mm 1 W/m2
07:11 9.8 °C 6.3 °C 1005.3 hPa North 6.1 km/h 9.7 km/h 79% 0.0 mm 3 W/m2
07:16 10.4 °C 6.3 °C 1005.3 hPa NNE 6.1 km/h 12.2 km/h 76% 0.0 mm 4 W/m2
07:21 10.8 °C 6.3 °C 1005.0 hPa NNE 7.2 km/h 12.2 km/h 74% 0.0 mm 6 W/m2
07:26 11.0 °C 6.2 °C 1004.6 hPa NNE 2.6 km/h 11.1 km/h 72% 0.0 mm 7 W/m2
07:31 11.0 °C 6.2 °C 1004.6 hPa NNE 2.6 km/h 11.1 km/h 72% 0.0 mm 8 W/m2
07:36 11.0 °C 5.9 °C 1004.6 hPa NNE 2.6 km/h 9.7 km/h 71% 0.0 mm 11 W/m2
07:41 11.1 °C 6.1 °C 1005.0 hPa North 6.1 km/h 9.7 km/h 71% 0.0 mm 11 W/m2
07:46 11.3 °C 6.2 °C 1005.0 hPa North 6.1 km/h 13.4 km/h 71% 0.0 mm 21 W/m2
07:51 11.3 °C 6.2 °C 1005.0 hPa NNW 1.1 km/h 13.4 km/h 71% 0.0 mm 31 W/m2
07:56 11.0 °C 5.9 °C 1005.0 hPa NW 5.0 km/h 8.7 km/h 71% 0.0 mm 28 W/m2
08:01 10.8 °C 6.2 °C 1005.0 hPa NNW 7.2 km/h 12.2 km/h 73% 0.0 mm 34 W/m2
08:06 11.4 °C 6.6 °C 1005.0 hPa North 6.1 km/h 13.4 km/h 72% 0.0 mm 40 W/m2
08:11 11.8 °C 6.5 °C 1005.0 hPa NNE 7.2 km/h 15.8 km/h 70% 0.0 mm 50 W/m2
08:16 12.0 °C 6.3 °C 1005.0 hPa North 6.1 km/h 15.8 km/h 68% 0.0 mm 104 W/m2
08:21 12.5 °C 6.6 °C 1004.6 hPa North 8.7 km/h 12.2 km/h 67% 0.0 mm 92 W/m2
08:26 12.8 °C 6.4 °C 1004.6 hPa North 7.2 km/h 12.2 km/h 65% 0.0 mm 100 W/m2
08:31 13.0 °C 6.6 °C 1004.6 hPa North 6.1 km/h 12.2 km/h 65% 0.0 mm 88 W/m2
08:36 13.1 °C 6.7 °C 1005.0 hPa NNW 7.2 km/h 11.1 km/h 65% 0.0 mm 86 W/m2
08:41 13.3 °C 6.9 °C 1005.0 hPa North 7.2 km/h 12.2 km/h 65% 0.0 mm 112 W/m2
08:46 13.4 °C 6.7 °C 1005.0 hPa North 9.7 km/h 15.8 km/h 64% 0.0 mm 146 W/m2
08:51 13.7 °C 6.8 °C 1004.6 hPa North 8.7 km/h 15.8 km/h 63% 0.0 mm 97 W/m2
08:56 13.8 °C 6.9 °C 1004.6 hPa North 5.0 km/h 15.8 km/h 63% 0.0 mm 119 W/m2
09:01 14.0 °C 6.8 °C 1004.6 hPa North 2.6 km/h 12.2 km/h 62% 0.0 mm 80 W/m2
09:06 14.1 °C 6.9 °C 1004.6 hPa NNE 3.5 km/h 11.1 km/h 62% 0.0 mm 112 W/m2
09:11 14.4 °C 7.4 °C 1004.6 hPa NE 6.1 km/h 8.7 km/h 63% 0.0 mm 170 W/m2
09:16 15.2 °C 7.5 °C 1004.6 hPa NE 5.0 km/h 12.2 km/h 60% 0.0 mm 283 W/m2
09:21 16.1 °C 7.3 °C 1004.6 hPa NE 3.5 km/h 15.8 km/h 56% 0.0 mm 193 W/m2
09:26 16.8 °C 8.0 °C 1005.0 hPa NE 1.1 km/h 15.8 km/h 56% 0.0 mm 300 W/m2
09:31 17.2 °C 7.6 °C 1005.0 hPa NE 5.0 km/h 11.1 km/h 53% 0.0 mm 261 W/m2
09:36 17.0 °C 7.1 °C 1005.0 hPa NNE 6.1 km/h 11.1 km/h 52% 0.0 mm 292 W/m2
09:41 17.1 °C 7.4 °C 1005.0 hPa NNE 5.0 km/h 11.1 km/h 53% 0.0 mm 251 W/m2
09:46 17.6 °C 7.9 °C 1004.6 hPa North 5.0 km/h 12.2 km/h 53% 0.0 mm 213 W/m2
09:51 17.7 °C 7.7 °C 1005.0 hPa North 8.7 km/h 12.2 km/h 52% 0.0 mm 104 W/m2
09:56 17.7 °C 7.7 °C 1005.0 hPa North 5.0 km/h 12.2 km/h 52% 0.0 mm 72 W/m2
10:01 18.3 °C 8.3 °C 1005.0 hPa North 5.0 km/h 12.2 km/h 52% 0.0 mm 68 W/m2
10:06 18.8 °C 8.4 °C 1005.0 hPa North 5.0 km/h 12.2 km/h 51% 0.0 mm 64 W/m2
10:11 19.2 °C 8.6 °C 1005.3 hPa NNE 5.0 km/h 12.2 km/h 50% 0.0 mm 63 W/m2
10:16 19.4 °C 8.1 °C 1005.0 hPa NNE 7.2 km/h 11.1 km/h 48% 0.0 mm 64 W/m2
10:21 19.0 °C 8.1 °C 1005.3 hPa North 9.7 km/h 12.2 km/h 49% 0.0 mm 66 W/m2
10:26 19.1 °C 8.4 °C 1005.0 hPa NNE 7.2 km/h 12.2 km/h 50% 0.0 mm 68 W/m2
10:31 19.3 °C 8.6 °C 1005.0 hPa North 8.7 km/h 19.5 km/h 50% 0.0 mm 92 W/m2
10:36 18.8 °C 8.4 °C 1005.3 hPa NW 9.7 km/h 21.9 km/h 51% 0.0 mm 237 W/m2
10:41 19.1 °C 8.7 °C 1005.3 hPa NW 8.7 km/h 21.9 km/h 51% 0.0 mm 309 W/m2
10:46 19.2 °C 8.8 °C 1005.3 hPa NNW 8.7 km/h 19.5 km/h 51% 0.0 mm 314 W/m2
10:51 19.0 °C 8.7 °C 1005.3 hPa NNW 12.2 km/h 20.9 km/h 51% 0.0 mm 322 W/m2
10:56 19.2 °C 9.1 °C 1005.6 hPa NNW 11.1 km/h 20.9 km/h 52% 0.0 mm 330 W/m2
11:01 19.0 °C 8.7 °C 1005.3 hPa NW 8.7 km/h 21.9 km/h 51% 0.0 mm 223 W/m2
11:06 19.1 °C 9.0 °C 1005.6 hPa NNW 15.8 km/h 23.3 km/h 52% 0.0 mm 334 W/m2
11:11 19.1 °C 9.3 °C 1005.6 hPa NNW 12.2 km/h 25.6 km/h 53% 0.0 mm 339 W/m2
11:16 19.1 °C 9.3 °C 1005.3 hPa NNW 14.8 km/h 25.6 km/h 53% 0.0 mm 342 W/m2
11:21 19.4 °C 9.9 °C 1005.3 hPa NNW 9.7 km/h 21.9 km/h 54% 0.0 mm 351 W/m2
11:26 19.3 °C 9.2 °C 1005.3 hPa NW 9.7 km/h 23.3 km/h 52% 0.0 mm 353 W/m2
11:31 19.4 °C 9.6 °C 1005.3 hPa NNW 14.8 km/h 24.5 km/h 53% 0.0 mm 349 W/m2
11:36 19.6 °C 9.8 °C 1005.3 hPa NNW 17.2 km/h 28.0 km/h 53% 0.0 mm 348 W/m2
11:41 19.6 °C 9.5 °C 1005.3 hPa NNW 15.8 km/h 28.0 km/h 52% 0.0 mm 347 W/m2
11:46 19.5 °C 9.1 °C 1005.3 hPa NW 12.2 km/h 28.0 km/h 51% 0.0 mm 349 W/m2
11:51 19.5 °C 9.1 °C 1005.3 hPa NNW 12.2 km/h 31.7 km/h 51% 0.0 mm 349 W/m2
11:56 19.6 °C 9.2 °C 1005.0 hPa NNW 17.2 km/h 36.7 km/h 51% 0.0 mm 348 W/m2
12:01 19.7 °C 9.0 °C 1005.0 hPa NW 27.0 km/h 39.3 km/h 50% 0.0 mm 357 W/m2
12:06 19.4 °C 9.3 °C 1005.6 hPa NW 23.3 km/h 39.3 km/h 52% 0.0 mm 272 W/m2
12:11 19.7 °C 9.9 °C 1005.6 hPa NW 20.9 km/h 36.7 km/h 53% 0.0 mm 361 W/m2
12:16 19.8 °C 9.4 °C 1005.3 hPa NW 14.8 km/h 36.7 km/h 51% 0.0 mm 364 W/m2
12:21 20.0 °C 9.3 °C 1005.6 hPa NW 14.8 km/h 36.7 km/h 50% 0.0 mm 386 W/m2
12:26 19.8 °C 9.4 °C 1005.6 hPa NW 23.3 km/h 37.8 km/h 51% 0.0 mm 363 W/m2
12:31 19.8 °C 9.4 °C 1005.6 hPa NW 8.7 km/h 37.8 km/h 51% 0.0 mm 371 W/m2
12:36 19.9 °C 9.5 °C 1005.6 hPa NW 12.2 km/h 31.7 km/h 51% 0.0 mm 155 W/m2
12:41 19.1 °C 9.0 °C 1005.6 hPa NNW 12.2 km/h 30.6 km/h 52% 0.0 mm 80 W/m2
12:46 18.6 °C 9.1 °C 1005.6 hPa NNW 13.4 km/h 33.1 km/h 54% 0.0 mm 87 W/m2
12:51 18.4 °C 9.2 °C 1005.6 hPa NW 14.8 km/h 39.3 km/h 55% 0.0 mm 364 W/m2
12:56 19.8 °C 10.5 °C 1005.6 hPa WNW 14.8 km/h 39.3 km/h 55% 0.0 mm 143 W/m2
13:01 19.5 °C 9.7 °C 1005.3 hPa NW 11.1 km/h 27.0 km/h 53% 0.0 mm 177 W/m2
13:06 19.6 °C 9.8 °C 1005.3 hPa NW 9.7 km/h 23.3 km/h 53% 0.0 mm 174 W/m2
13:11 19.9 °C 9.8 °C 1005.3 hPa NW 9.7 km/h 23.3 km/h 52% 0.0 mm 395 W/m2
13:16 20.2 °C 9.4 °C 1005.0 hPa NW 21.9 km/h 27.0 km/h 50% 0.0 mm 350 W/m2
13:34 20.2 °C 10.3 °C 1005.0 hPa NNW 12.2 km/h 17.2 km/h 53% 0.0 mm 216 W/m2
13:39 20.3 °C 9.8 °C 1004.6 hPa NNW 8.7 km/h 23.3 km/h 51% 0.0 mm 335 W/m2
13:44 20.6 °C 9.5 °C 1004.6 hPa NW 14.8 km/h 23.3 km/h 49% 0.0 mm 275 W/m2
13:49 20.3 °C 9.6 °C 1005.0 hPa NNW 15.8 km/h 23.3 km/h 50% 0.0 mm 106 W/m2
13:54 19.1 °C 9.3 °C 1004.6 hPa NNW 13.4 km/h 23.3 km/h 53% 0.0 mm 122 W/m2
13:59 18.8 °C 9.8 °C 1005.0 hPa NW 14.8 km/h 23.3 km/h 56% 0.0 mm 101 W/m2
14:04 18.6 °C 9.7 °C 1004.6 hPa NW 12.2 km/h 20.9 km/h 56% 0.0 mm 83 W/m2
14:09 18.4 °C 9.5 °C 1005.0 hPa NW 11.1 km/h 24.5 km/h 56% 0.0 mm 53 W/m2
14:14 18.2 °C 9.6 °C 1004.6 hPa NNW 7.2 km/h 24.5 km/h 57% 0.0 mm 59 W/m2
14:19 18.1 °C 9.4 °C 1005.0 hPa NW 8.7 km/h 19.5 km/h 57% 0.0 mm 47 W/m2
14:24 18.0 °C 9.6 °C 1005.0 hPa NNW 6.1 km/h 19.5 km/h 58% 0.0 mm 44 W/m2
14:29 18.0 °C 9.6 °C 1005.0 hPa NNW 7.2 km/h 14.8 km/h 58% 0.0 mm 38 W/m2
14:34 17.9 °C 10.1 °C 1005.3 hPa NNW 2.6 km/h 14.8 km/h 60% 0.0 mm 41 W/m2
14:39 17.9 °C 10.3 °C 1005.3 hPa NW 2.6 km/h 9.7 km/h 61% 0.0 mm 29 W/m2
14:44 17.8 °C 10.2 °C 1005.3 hPa SSW 8.7 km/h 12.2 km/h 61% 0.0 mm 36 W/m2
14:49 17.0 °C 9.9 °C 1005.3 hPa SW 13.4 km/h 23.3 km/h 63% 0.0 mm 38 W/m2
14:54 16.2 °C 10.3 °C 1005.3 hPa WSW 17.2 km/h 29.4 km/h 68% 0.0 mm 65 W/m2
14:59 15.9 °C 10.4 °C 1005.3 hPa SW 13.4 km/h 29.4 km/h 70% 0.0 mm 69 W/m2
15:04 15.9 °C 10.7 °C 1005.6 hPa WSW 17.2 km/h 25.6 km/h 71% 0.0 mm 72 W/m2
15:09 15.9 °C 10.4 °C 1005.3 hPa WSW 12.2 km/h 28.0 km/h 70% 0.0 mm 72 W/m2
15:14 15.9 °C 10.4 °C 1005.6 hPa WSW 11.1 km/h 28.0 km/h 70% 0.0 mm 41 W/m2
15:19 15.9 °C 10.4 °C 1005.3 hPa West 18.3 km/h 23.3 km/h 70% 0.0 mm 45 W/m2
15:24 16.2 °C 10.3 °C 1005.3 hPa WSW 15.8 km/h 23.3 km/h 68% 0.0 mm 106 W/m2
15:29 16.7 °C 10.3 °C 1005.6 hPa WSW 13.4 km/h 20.9 km/h 66% 0.0 mm 206 W/m2
15:34 16.7 °C 9.9 °C 1005.3 hPa SW 9.7 km/h 19.5 km/h 64% 0.0 mm 131 W/m2
15:39 16.7 °C 9.9 °C 1005.6 hPa SW 11.1 km/h 19.5 km/h 64% 0.0 mm 85 W/m2
15:44 16.4 °C 9.8 °C 1005.3 hPa WSW 9.7 km/h 15.8 km/h 65% 0.0 mm 54 W/m2
15:49 16.2 °C 9.8 °C 1005.3 hPa WSW 8.7 km/h 15.8 km/h 66% 0.0 mm 65 W/m2
15:54 16.2 °C 9.8 °C 1005.3 hPa WSW 1.1 km/h 13.4 km/h 66% 0.0 mm 79 W/m2
15:59 16.7 °C 10.1 °C 1005.0 hPa West 5.0 km/h 12.2 km/h 65% 0.0 mm 120 W/m2
16:04 17.5 °C 10.4 °C 1005.0 hPa WNW 2.6 km/h 9.7 km/h 63% 0.0 mm 101 W/m2
16:09 18.2 °C 10.8 °C 1005.3 hPa WNW 3.5 km/h 9.7 km/h 62% 0.0 mm 89 W/m2
16:14 18.9 °C 10.7 °C 1005.3 hPa West 2.6 km/h 6.1 km/h 59% 0.0 mm 44 W/m2
16:19 18.1 °C 10.2 °C 1005.3 hPa Calm   5.0 km/h 60% 0.0 mm 57 W/m2
16:24 18.4 °C 10.8 °C 1005.3 hPa WNW 3.5 km/h 5.0 km/h 61% 0.0 mm 56 W/m2
16:29 18.3 °C 10.4 °C 1005.0 hPa North 3.5 km/h 7.2 km/h 60% 0.0 mm 33 W/m2
16:34 17.4 °C 10.1 °C 1005.3 hPa North 3.5 km/h 7.2 km/h 62% 0.0 mm 56 W/m2
16:39 18.1 °C 10.9 °C 1005.3 hPa Calm   7.2 km/h 63% 0.0 mm 51 W/m2
16:44 18.6 °C 10.9 °C 1005.6 hPa NNE 2.6 km/h 7.2 km/h 61% 0.0 mm 46 W/m2
16:49 18.6 °C 10.7 °C 1005.6 hPa NE 3.5 km/h 6.1 km/h 60% 0.0 mm 40 W/m2
16:54 17.9 °C 10.3 °C 1005.6 hPa NE 5.0 km/h 9.7 km/h 61% 0.0 mm 33 W/m2
16:59 17.2 °C 10.1 °C 1006.0 hPa East 3.5 km/h 9.7 km/h 63% 0.0 mm 27 W/m2
17:04 17.0 °C 10.4 °C 1006.0 hPa ESE 5.0 km/h 9.7 km/h 65% 0.0 mm 22 W/m2
17:10 16.3 °C 10.4 °C 1006.0 hPa ESE 6.1 km/h 11.1 km/h 68% 0.0 mm 16 W/m2
17:15 16.0 °C 10.1 °C 1006.0 hPa East 7.2 km/h 11.1 km/h 68% 0.0 mm 8 W/m2
17:20 15.6 °C 10.4 °C 1006.0 hPa ENE 2.6 km/h 11.1 km/h 71% 0.0 mm 4 W/m2
17:25 15.3 °C 10.3 °C 1006.3 hPa ENE 1.1 km/h 8.7 km/h 72% 0.0 mm 2 W/m2
17:30 15.0 °C 10.2 °C 1006.0 hPa NE 2.6 km/h 8.7 km/h 73% 0.0 mm 0 W/m2
17:35 14.7 °C 10.3 °C 1006.0 hPa NE 2.6 km/h 6.1 km/h 75% 0.0 mm 0 W/m2
17:40 14.4 °C 10.2 °C 1006.3 hPa NNE 2.6 km/h 6.1 km/h 76% 0.0 mm 0 W/m2
17:45 14.3 °C 10.1 °C 1006.3 hPa NW 3.5 km/h 7.2 km/h 76% 0.0 mm 0 W/m2
17:50 14.3 °C 10.3 °C 1006.3 hPa NW 3.5 km/h 7.2 km/h 77% 0.0 mm 0 W/m2
17:55 14.0 °C 10.1 °C 1006.0 hPa NNW 1.1 km/h 7.2 km/h 77% 0.0 mm 0 W/m2
18:00 13.7 °C 10.1 °C 1006.0 hPa NNW 2.6 km/h 7.2 km/h 79% 0.0 mm 0 W/m2
18:05 13.6 °C 10.1 °C 1006.3 hPa Calm   5.0 km/h 79% 0.0 mm 0 W/m2
18:10 13.4 °C 10.0 °C 1006.3 hPa Calm   3.5 km/h 80% 0.0 mm 0 W/m2
18:15 13.2 °C 9.8 °C 1006.7 hPa Calm   3.5 km/h 80% 0.0 mm 0 W/m2
18:20 13.1 °C 9.7 °C 1006.7 hPa NW 2.6 km/h 5.0 km/h 80% 0.0 mm 0 W/m2
18:25 13.0 °C 9.8 °C 1006.7 hPa Calm   5.0 km/h 81% 0.0 mm 0 W/m2
18:30 12.7 °C 9.7 °C 1007.0 hPa WSW 2.6 km/h 5.0 km/h 82% 0.0 mm 0 W/m2
18:35 12.6 °C 9.8 °C 1007.0 hPa Calm   5.0 km/h 83% 0.0 mm 0 W/m2
18:40 12.4 °C 9.4 °C 1007.0 hPa Calm   5.0 km/h 82% 0.0 mm 0 W/m2
18:45 12.2 °C 9.4 °C 1007.0 hPa NNW 2.6 km/h 5.0 km/h 83% 0.0 mm 0 W/m2
18:50 12.2 °C 9.4 °C 1007.0 hPa North 1.1 km/h 5.0 km/h 83% 0.0 mm 0 W/m2
18:55 12.0 °C 9.2 °C 1007.0 hPa NNW 2.6 km/h 3.5 km/h 83% 0.0 mm 0 W/m2
19:00 12.4 °C 9.8 °C 1007.0 hPa Calm   3.5 km/h 84% 0.0 mm 0 W/m2
19:05 12.2 °C 9.6 °C 1007.0 hPa Calm   3.5 km/h 84% 0.0 mm 0 W/m2
19:10 12.0 °C 9.4 °C 1006.7 hPa NNW 3.5 km/h 3.5 km/h 84% 0.0 mm 0 W/m2
19:16 12.1 °C 9.5 °C 1007.0 hPa NW 3.5 km/h 5.0 km/h 84% 0.0 mm 0 W/m2
19:21 11.8 °C 9.4 °C 1007.0 hPa NW 3.5 km/h 5.0 km/h 85% 0.0 mm 0 W/m2
19:26 11.2 °C 8.8 °C 1007.0 hPa NW 5.0 km/h 6.1 km/h 85% 0.0 mm 0 W/m2
19:31 11.0 °C 8.8 °C 1007.0 hPa NW 3.5 km/h 8.7 km/h 86% 0.0 mm 0 W/m2
19:36 10.9 °C 8.8 °C 1007.0 hPa NNW 3.5 km/h 8.7 km/h 87% 0.0 mm 0 W/m2
19:41 10.8 °C 8.9 °C 1007.0 hPa NNW 3.5 km/h 7.2 km/h 88% 0.0 mm 0 W/m2
19:46 10.8 °C 9.1 °C 1007.0 hPa North 1.1 km/h 7.2 km/h 89% 0.0 mm 0 W/m2
19:51 10.6 °C 8.9 °C 1007.0 hPa North 5.0 km/h 7.2 km/h 89% 0.0 mm 0 W/m2
19:56 10.6 °C 9.1 °C 1007.0 hPa North 2.6 km/h 7.2 km/h 90% 0.0 mm 0 W/m2
20:01 10.5 °C 8.9 °C 1007.3 hPa NE 3.5 km/h 8.7 km/h 90% 0.0 mm 0 W/m2
20:06 10.4 °C 9.0 °C 1007.3 hPa NE 5.0 km/h 8.7 km/h 91% 0.0 mm 0 W/m2
20:11 10.4 °C 9.2 °C 1007.3 hPa NE 5.0 km/h 7.2 km/h 92% 0.0 mm 0 W/m2
20:16 10.5 °C 9.3 °C 1007.3 hPa NNE 3.5 km/h 7.2 km/h 92% 0.0 mm 0 W/m2
20:21 10.6 °C 9.3 °C 1007.3 hPa NNE 2.6 km/h 7.2 km/h 92% 0.0 mm 0 W/m2
20:26 10.6 °C 9.3 °C 1007.3 hPa NNE 3.5 km/h 7.2 km/h 92% 0.0 mm 0 W/m2
20:31 10.6 °C 9.3 °C 1007.3 hPa NNW 2.6 km/h 5.0 km/h 92% 0.0 mm 0 W/m2
20:36 10.5 °C 9.1 °C 1007.7 hPa NW 2.6 km/h 5.0 km/h 91% 0.0 mm 0 W/m2
20:41 10.5 °C 9.1 °C 1007.7 hPa NW 5.0 km/h 6.1 km/h 91% 0.0 mm 0 W/m2
20:47 10.5 °C 8.9 °C 1007.3 hPa NW 3.5 km/h 6.1 km/h 90% 0.0 mm 0 W/m2
20:52 10.6 °C 9.1 °C 1007.7 hPa NW 3.5 km/h 6.1 km/h 90% 0.0 mm 0 W/m2
20:57 10.5 °C 8.8 °C 1007.7 hPa NW 6.1 km/h 8.7 km/h 89% 0.0 mm 0 W/m2
21:14 10.2 °C 8.4 °C 1007.7 hPa NW 5.0 km/h 9.7 km/h 89% 0.0 mm 0 W/m2
21:19 10.3 °C 8.6 °C 1007.7 hPa NW 5.0 km/h 8.7 km/h 89% 0.0 mm 0 W/m2
21:24 10.5 °C 8.6 °C 1008.0 hPa NNW 2.6 km/h 8.7 km/h 88% 0.0 mm 0 W/m2
21:29 10.3 °C 8.2 °C 1007.7 hPa NNE 1.1 km/h 7.2 km/h 87% 0.0 mm 0 W/m2
21:34 10.1 °C 8.1 °C 1007.7 hPa NE 1.1 km/h 6.1 km/h 87% 0.0 mm 0 W/m2
21:39 10.0 °C 7.9 °C 1007.7 hPa NE 1.1 km/h 3.5 km/h 87% 0.0 mm 0 W/m2
21:44 10.0 °C 8.1 °C 1008.0 hPa NNE 1.1 km/h 3.5 km/h 88% 0.0 mm 0 W/m2
21:49 10.0 °C 8.1 °C 1008.0 hPa North 2.6 km/h 5.0 km/h 88% 0.0 mm 0 W/m2
21:54 10.0 °C 8.1 °C 1007.7 hPa North 1.1 km/h 5.0 km/h 88% 0.0 mm 0 W/m2
21:59 9.9 °C 8.0 °C 1007.7 hPa North 3.5 km/h 11.1 km/h 88% 0.0 mm 0 W/m2
22:04 9.9 °C 8.0 °C 1007.7 hPa NNW 3.5 km/h 11.1 km/h 88% 0.0 mm 0 W/m2
22:09 10.0 °C 7.9 °C 1007.7 hPa NNW 3.5 km/h 9.7 km/h 87% 0.0 mm 0 W/m2
22:14 9.8 °C 7.9 °C 1008.0 hPa NNW 2.6 km/h 8.7 km/h 88% 0.0 mm 0 W/m2
22:19 9.6 °C 7.7 °C 1008.0 hPa NNW 2.6 km/h 8.7 km/h 88% 0.0 mm 0 W/m2
22:24 9.5 °C 7.6 °C 1007.7 hPa NNW 2.6 km/h 8.7 km/h 88% 0.0 mm 0 W/m2
22:29 9.3 °C 7.4 °C 1008.0 hPa NNW 5.0 km/h 6.1 km/h 88% 0.0 mm 0 W/m2
22:34 9.1 °C 7.2 °C 1008.0 hPa NNW 3.5 km/h 6.1 km/h 88% 0.0 mm 0 W/m2
22:39 8.9 °C 7.2 °C 1007.7 hPa NNW 3.5 km/h 6.1 km/h 89% 0.0 mm 0 W/m2
22:44 8.9 °C 7.3 °C 1008.0 hPa NNW 6.1 km/h 8.7 km/h 90% 0.0 mm 0 W/m2
22:49 9.0 °C 7.3 °C 1008.0 hPa NW 5.0 km/h 8.7 km/h 89% 0.0 mm 0 W/m2
22:54 9.3 °C 7.6 °C 1008.0 hPa NNW 3.5 km/h 9.7 km/h 89% 0.0 mm 0 W/m2
22:59 9.6 °C 7.7 °C 1008.0 hPa NNW 6.1 km/h 9.7 km/h 88% 0.0 mm 0 W/m2
23:04 9.5 °C 7.3 °C 1007.7 hPa NNW 2.6 km/h 8.7 km/h 86% 0.0 mm 0 W/m2
23:09 9.4 °C 7.2 °C 1007.7 hPa NNW 5.0 km/h 8.7 km/h 86% 0.0 mm 0 W/m2
23:14 9.2 °C 7.0 °C 1007.7 hPa NNW 2.6 km/h 6.1 km/h 86% 0.0 mm 0 W/m2
23:19 9.1 °C 6.9 °C 1007.7 hPa NNW 2.6 km/h 6.1 km/h 86% 0.0 mm 0 W/m2
23:24 9.1 °C 6.9 °C 1007.7 hPa NW 3.5 km/h 5.0 km/h 86% 0.0 mm 0 W/m2
23:29 9.3 °C 7.1 °C 1008.0 hPa NW 3.5 km/h 6.1 km/h 86% 0.0 mm 0 W/m2
23:34 9.5 °C 7.3 °C 1007.7 hPa NW 3.5 km/h 6.1 km/h 86% 0.0 mm 0 W/m2
23:39 9.9 °C 7.7 °C 1008.0 hPa NW 5.0 km/h 7.2 km/h 86% 0.0 mm 0 W/m2
23:44 10.2 °C 7.4 °C 1008.0 hPa NW 5.0 km/h 7.2 km/h 83% 0.0 mm 0 W/m2
23:49 10.2 °C 7.4 °C 1008.0 hPa NW 3.5 km/h 7.2 km/h 83% 0.0 mm 0 W/m2
23:54 10.0 °C 7.1 °C 1007.7 hPa NW 5.0 km/h 7.2 km/h 82% 0.0 mm 0 W/m2
23:59 10.1 °C 7.2 °C 1007.7 hPa NW 3.5 km/h 7.2 km/h 82% 0.0 mm 0 W/m2
Northern Hawkes Bay. New Zealand Historic Data
Compliments of Weather Underground - 2.25 mb